Time;durP1;ratioP1;P1;durP2;ratioP2;P2;SDS_P1;SDS_P2;PMS_P1;PMS_P2;Temp;Humidity;BMP_temperature;BMP_pressure;BME280_temperature;BME280_humidity;BME280_pressure;Samples;Min_cycle;Max_cycle;Signal;HPM_P1;HPM_P2
2021/07/11 00:00:27;;;;;;;2.88;1.58;;;18.20;99.90;;;;;;4973077;28;20081;-76
2021/07/11 00:02:54;;;;;;;3.10;1.60;;;18.20;99.90;;;;;;4965918;28;20081;-76
2021/07/11 00:05:24;;;;;;;3.63;1.50;;;18.20;99.90;;;;;;4968208;28;20090;-76
2021/07/11 00:07:53;;;;;;;3.03;1.40;;;18.20;99.90;;;;;;4968739;28;20059;-76
2021/07/11 00:10:21;;;;;;;2.67;1.45;;;18.20;99.90;;;;;;5001212;28;20457;-76
2021/07/11 00:12:49;;;;;;;2.65;1.30;;;18.20;99.90;;;;;;5015478;28;20050;-76
2021/07/11 00:15:19;;;;;;;2.80;1.38;;;18.30;99.90;;;;;;5015366;28;20499;-77
2021/07/11 00:17:46;;;;;;;2.88;1.50;;;18.30;99.90;;;;;;5016154;28;20406;-76
2021/07/11 00:20:15;;;;;;;3.30;1.60;;;18.20;99.90;;;;;;5014745;28;20451;-76
2021/07/11 00:22:43;;;;;;;2.63;1.42;;;18.30;99.90;;;;;;5015752;28;20104;-74
2021/07/11 00:25:14;;;;;;;3.03;1.45;;;18.30;99.90;;;;;;5015389;28;20132;-77
2021/07/11 00:27:41;;;;;;;3.38;1.50;;;18.30;99.90;;;;;;5015361;28;20090;-77
2021/07/11 00:30:11;;;;;;;2.70;1.50;;;18.30;99.90;;;;;;5015513;28;20053;-78
2021/07/11 00:32:38;;;;;;;3.20;1.70;;;18.30;99.90;;;;;;5015744;28;20045;-76
2021/07/11 00:35:06;;;;;;;3.38;1.45;;;18.30;99.90;;;;;;5014711;28;20050;-77
2021/07/11 00:37:33;;;;;;;3.88;1.50;;;18.30;99.90;;;;;;5015561;28;20042;-77
2021/07/11 00:40:00;;;;;;;2.90;1.38;;;18.30;99.90;;;;;;5015210;28;20054;-78
2021/07/11 00:42:28;;;;;;;4.78;1.30;;;18.30;99.90;;;;;;5014908;28;20048;-75
2021/07/11 00:44:55;;;;;;;2.95;1.27;;;18.30;99.90;;;;;;5015218;28;20048;-78
2021/07/11 00:47:22;;;;;;;3.47;1.45;;;18.30;99.90;;;;;;5015162;28;20140;-77
2021/07/11 00:49:50;;;;;;;3.53;1.42;;;18.30;99.90;;;;;;5012276;28;20056;-75
2021/07/11 00:52:17;;;;;;;3.60;1.70;;;18.30;99.90;;;;;;5014974;28;20399;-75
2021/07/11 00:54:44;;;;;;;4.32;1.60;;;18.20;99.90;;;;;;5014585;28;20042;-77
2021/07/11 00:57:11;;;;;;;3.25;1.80;;;18.30;99.90;;;;;;5014871;28;20045;-76
2021/07/11 00:59:40;;;;;;;3.83;1.52;;;18.30;99.90;;;;;;5013161;28;20137;-76
2021/07/11 01:02:11;;;;;;;2.95;1.50;;;18.30;99.90;;;;;;5015097;28;20046;-77
2021/07/11 01:04:58;;;;;;;2.95;1.40;;;18.20;99.90;;;;;;5014885;28;20414;-76
2021/07/11 01:07:32;;;;;;;4.22;1.60;;;18.20;99.90;;;;;;5014980;28;20057;-77
2021/07/11 01:10:05;;;;;;;2.70;1.40;;;18.20;99.90;;;;;;5014776;28;20495;-77
2021/07/11 01:12:36;;;;;;;3.50;1.60;;;18.10;99.90;;;;;;5014820;28;20136;-77
2021/07/11 01:15:07;;;;;;;4.38;1.50;;;18.10;99.90;;;;;;5007530;28;20488;-77
2021/07/11 01:17:36;;;;;;;4.15;1.55;;;18.00;99.90;;;;;;5011130;28;20484;-77
2021/07/11 01:20:19;;;;;;;2.83;1.42;;;18.00;99.90;;;;;;5014609;28;20041;-78
2021/07/11 01:22:54;;;;;;;3.40;1.57;;;18.00;99.90;;;;;;5009070;28;20467;-74
2021/07/11 01:25:34;;;;;;;3.22;1.50;;;18.00;99.90;;;;;;5014400;28;20354;-77
2021/07/11 01:28:03;;;;;;;3.20;1.75;;;18.00;99.90;;;;;;5013577;28;20046;-75
2021/07/11 01:30:31;;;;;;;3.00;1.63;;;18.00;99.90;;;;;;5006843;28;20050;-78
2021/07/11 01:33:01;;;;;;;3.28;1.80;;;18.00;99.90;;;;;;5014305;28;20080;-76
2021/07/11 01:35:28;;;;;;;2.45;1.40;;;18.00;99.90;;;;;;5014190;28;20092;-79
2021/07/11 01:37:57;;;;;;;3.97;1.73;;;17.90;99.90;;;;;;5014512;28;20050;-78
2021/07/11 01:40:24;;;;;;;3.85;1.75;;;18.00;99.90;;;;;;5014114;28;20467;-77
2021/07/11 01:42:55;;;;;;;4.07;1.83;;;17.90;99.90;;;;;;5011969;28;20394;-77
2021/07/11 01:45:22;;;;;;;3.65;1.80;;;17.90;99.90;;;;;;5016184;28;20053;-76
2021/07/11 01:47:49;;;;;;;3.35;1.88;;;17.80;99.90;;;;;;5016136;28;20415;-77
2021/07/11 01:50:18;;;;;;;3.25;1.70;;;17.80;99.90;;;;;;5014160;28;20085;-78
2021/07/11 01:52:46;;;;;;;3.70;1.80;;;17.80;99.90;;;;;;5014070;28;20571;-78
2021/07/11 01:55:14;;;;;;;4.40;1.70;;;17.70;99.90;;;;;;5017857;28;20137;-78
2021/07/11 01:57:41;;;;;;;2.80;1.60;;;17.70;99.90;;;;;;5019695;28;20547;-77
2021/07/11 02:00:14;;;;;;;3.97;1.90;;;17.60;99.90;;;;;;5020858;28;20105;-78
2021/07/11 02:02:42;;;;;;;3.08;1.58;;;17.60;99.90;;;;;;5019853;28;20132;-75
2021/07/11 02:05:12;;;;;;;4.38;1.65;;;17.60;99.90;;;;;;5020354;28;20478;-77
2021/07/11 02:07:39;;;;;;;3.40;1.67;;;17.60;99.90;;;;;;5016846;28;20128;-77
2021/07/11 02:10:09;;;;;;;3.20;1.50;;;17.60;99.90;;;;;;5013568;28;20061;-78
2021/07/11 02:12:43;;;;;;;4.95;1.52;;;17.60;99.90;;;;;;5013625;28;20373;-76
2021/07/11 02:15:12;;;;;;;3.15;1.55;;;17.60;99.90;;;;;;5013395;28;20400;-75
2021/07/11 02:17:43;;;;;;;3.25;2.00;;;17.60;99.90;;;;;;5005848;28;20056;-77
2021/07/11 02:20:11;;;;;;;3.30;1.70;;;17.60;99.90;;;;;;5013492;28;20053;-77
2021/07/11 02:22:44;;;;;;;5.13;1.98;;;17.60;99.90;;;;;;5013266;28;20498;-78
2021/07/11 02:25:15;;;;;;;5.15;2.20;;;17.60;99.90;;;;;;5013871;28;20060;-76
2021/07/11 02:27:45;;;;;;;3.95;2.00;;;17.50;99.90;;;;;;5013591;28;20124;-75
2021/07/11 02:30:17;;;;;;;5.30;1.85;;;17.50;99.90;;;;;;5012927;28;20053;-74
2021/07/11 02:32:46;;;;;;;3.13;1.88;;;17.40;99.90;;;;;;5012957;28;20050;-77
2021/07/11 02:35:15;;;;;;;4.28;2.08;;;17.40;99.90;;;;;;5013539;28;20042;-79
2021/07/11 02:37:48;;;;;;;3.95;1.90;;;17.30;99.90;;;;;;5013597;28;20077;-77
2021/07/11 02:40:16;;;;;;;3.28;1.58;;;17.30;99.90;;;;;;5014796;28;20050;-75
2021/07/11 02:42:45;;;;;;;4.30;1.70;;;17.30;99.90;;;;;;5014413;28;20136;-77
2021/07/11 02:45:15;;;;;;;3.67;1.77;;;17.30;99.90;;;;;;5012894;28;20129;-76
2021/07/11 02:47:46;;;;;;;5.15;1.80;;;17.30;99.90;;;;;;5010028;28;20514;-77
2021/07/11 02:50:16;;;;;;;3.72;1.83;;;17.30;99.90;;;;;;5013244;28;20140;-78
2021/07/11 02:52:44;;;;;;;4.00;1.83;;;17.30;99.90;;;;;;5013861;28;20052;-78
2021/07/11 02:55:16;;;;;;;4.07;1.70;;;17.20;99.90;;;;;;5025150;28;20134;-75
2021/07/11 02:57:46;;;;;;;5.00;1.90;;;17.20;99.90;;;;;;5019789;28;20133;-76
2021/07/11 03:00:15;;;;;;;3.40;1.85;;;17.20;99.90;;;;;;5012705;28;20495;-79
2021/07/11 03:02:42;;;;;;;3.10;1.63;;;17.20;99.90;;;;;;5007297;28;20144;-76
2021/07/11 03:05:14;;;;;;;2.90;1.58;;;17.20;99.90;;;;;;5010910;28;20485;-78
2021/07/11 03:07:41;;;;;;;4.03;1.80;;;17.20;99.90;;;;;;5011408;28;20056;-78
2021/07/11 03:10:11;;;;;;;3.38;1.60;;;17.20;99.90;;;;;;5009957;28;20084;-77
2021/07/11 03:12:39;;;;;;;3.28;1.73;;;17.20;99.90;;;;;;5010988;28;20077;-78
2021/07/11 03:15:07;;;;;;;3.70;1.70;;;17.20;99.90;;;;;;5010323;28;20045;-78
2021/07/11 03:17:36;;;;;;;4.03;1.95;;;17.20;99.90;;;;;;5010170;28;20038;-77
2021/07/11 03:20:07;;;;;;;5.40;1.70;;;17.20;99.90;;;;;;5013999;28;20046;-77
2021/07/11 03:22:36;;;;;;;4.53;1.52;;;17.10;99.90;;;;;;5014674;28;20048;-78
2021/07/11 03:25:07;;;;;;;4.07;1.80;;;17.10;99.90;;;;;;5014275;28;20052;-80
2021/07/11 03:27:35;;;;;;;3.63;1.70;;;17.10;99.90;;;;;;5007617;28;20046;-79
2021/07/11 03:30:09;;;;;;;5.13;1.90;;;17.00;99.90;;;;;;5007170;28;20136;-79
2021/07/11 03:32:41;;;;;;;4.23;1.73;;;17.00;99.90;;;;;;5014616;28;20038;-79
2021/07/11 03:35:10;;;;;;;3.15;1.70;;;17.00;99.90;;;;;;5014103;28;20046;-79
2021/07/11 03:37:41;;;;;;;4.85;1.92;;;17.00;99.90;;;;;;5014614;28;20053;-78
2021/07/11 03:40:11;;;;;;;3.10;1.75;;;17.00;99.90;;;;;;5014032;28;20057;-77
2021/07/11 03:42:42;;;;;;;3.22;1.48;;;16.90;99.90;;;;;;5014428;28;20072;-78
2021/07/11 03:45:11;;;;;;;3.20;1.63;;;16.90;99.90;;;;;;5013189;28;20054;-77
2021/07/11 03:47:43;;;;;;;3.50;1.80;;;16.90;99.90;;;;;;5014188;28;20049;-78
2021/07/11 03:50:12;;;;;;;3.50;1.77;;;16.90;99.90;;;;;;5013979;28;20054;-78
2021/07/11 03:52:48;;;;;;;3.70;1.60;;;16.90;99.90;;;;;;5014528;28;20061;-76
2021/07/11 03:55:16;;;;;;;3.20;1.63;;;16.90;99.90;;;;;;5013934;28;20054;-78
2021/07/11 03:57:46;;;;;;;5.55;1.50;;;16.90;99.90;;;;;;5013996;28;20054;-78
2021/07/11 04:00:16;;;;;;;3.30;1.77;;;16.90;99.90;;;;;;5011876;28;20140;-79
2021/07/11 04:02:50;;;;;;;3.90;1.70;;;16.90;99.90;;;;;;5015374;28;20046;-80
2021/07/11 04:05:21;;;;;;;4.80;1.70;;;16.90;99.90;;;;;;5015969;28;20563;-78
2021/07/11 04:07:51;;;;;;;3.78;1.40;;;16.90;99.90;;;;;;5016299;28;20050;-79
2021/07/11 04:10:22;;;;;;;3.20;1.52;;;16.90;99.90;;;;;;5015736;28;20064;-78
2021/07/11 04:12:49;;;;;;;3.60;1.60;;;17.00;99.90;;;;;;5012678;28;20053;-79
2021/07/11 04:15:16;;;;;;;3.72;1.88;;;17.00;99.90;;;;;;5013526;28;20141;-80
2021/07/11 04:17:49;;;;;;;4.75;1.80;;;17.00;99.90;;;;;;5011554;28;20073;-80
2021/07/11 04:20:17;;;;;;;5.07;1.70;;;17.00;99.90;;;;;;5015496;28;20048;-77
2021/07/11 04:22:48;;;;;;;2.88;1.50;;;17.00;99.90;;;;;;5015726;28;20067;-80
2021/07/11 04:25:16;;;;;;;3.08;1.50;;;17.00;99.90;;;;;;5020216;28;20073;-79
2021/07/11 04:27:44;;;;;;;3.33;1.50;;;17.00;99.90;;;;;;5011228;28;20046;-78
2021/07/11 04:30:12;;;;;;;3.20;1.50;;;17.00;99.90;;;;;;5012642;28;20061;-80
2021/07/11 04:32:39;;;;;;;3.33;1.58;;;17.00;99.90;;;;;;5015732;28;20041;-81
2021/07/11 04:35:10;;;;;;;4.35;1.70;;;17.10;99.90;;;;;;5015169;28;20048;-79
2021/07/11 04:37:37;;;;;;;3.20;1.70;;;17.10;99.90;;;;;;5015430;28;20045;-81
2021/07/11 04:40:05;;;;;;;3.33;1.45;;;17.10;99.90;;;;;;5015312;28;20053;-77
2021/07/11 04:42:32;;;;;;;3.58;1.55;;;17.10;99.90;;;;;;5039024;22;20056;-77
2021/07/11 04:45:01;;;;;;;2.45;1.23;;;17.10;99.90;;;;;;4990783;28;20077;-78
2021/07/11 04:47:28;;;;;;;2.83;1.50;;;17.20;99.90;;;;;;4998081;28;20514;-77
2021/07/11 04:49:55;;;;;;;3.97;1.80;;;17.10;99.90;;;;;;4996348;28;20050;-78
2021/07/11 04:52:24;;;;;;;2.63;1.50;;;17.20;99.90;;;;;;4995345;28;20129;-78
2021/07/11 04:54:51;;;;;;;2.95;1.60;;;17.20;99.90;;;;;;4994603;28;20137;-77
2021/07/11 04:57:19;;;;;;;3.85;1.48;;;17.20;99.90;;;;;;4994572;28;20050;-77
2021/07/11 04:59:46;;;;;;;3.40;1.63;;;17.20;99.90;;;;;;4995343;28;20073;-77
2021/07/11 05:02:14;;;;;;;3.60;1.40;;;17.20;99.90;;;;;;4994735;28;20053;-78
2021/07/11 05:04:41;;;;;;;3.42;1.60;;;17.20;99.90;;;;;;4994933;28;20074;-78
2021/07/11 05:07:08;;;;;;;3.60;1.50;;;17.20;99.90;;;;;;4992636;28;20046;-77
2021/07/11 05:09:36;;;;;;;2.80;1.40;;;17.20;99.90;;;;;;4990806;28;20042;-78
2021/07/11 05:12:04;;;;;;;2.78;1.50;;;17.30;99.90;;;;;;4995644;28;20060;-79
2021/07/11 05:14:34;;;;;;;3.17;1.58;;;17.30;99.90;;;;;;4992188;28;20138;-79
2021/07/11 05:17:01;;;;;;;3.17;1.60;;;17.30;99.90;;;;;;4994782;28;20137;-76
2021/07/11 05:19:28;;;;;;;3.13;1.42;;;17.30;99.90;;;;;;4994343;28;20567;-75
2021/07/11 05:21:55;;;;;;;3.00;1.40;;;17.30;99.90;;;;;;4988528;28;20039;-77
2021/07/11 05:24:22;;;;;;;3.42;1.65;;;17.30;99.90;;;;;;4994400;28;20057;-78
2021/07/11 05:26:50;;;;;;;3.67;1.63;;;17.30;99.90;;;;;;4987809;28;20399;-78
2021/07/11 05:29:17;;;;;;;2.80;1.60;;;17.30;99.90;;;;;;4993552;28;20145;-78
2021/07/11 05:31:45;;;;;;;3.20;1.60;;;17.30;99.90;;;;;;4993312;28;20584;-77
2021/07/11 05:34:13;;;;;;;5.18;1.63;;;17.30;99.90;;;;;;4998258;28;20107;-78
2021/07/11 05:36:40;;;;;;;4.13;1.60;;;17.40;99.90;;;;;;5001150;28;20065;-77
2021/07/11 05:39:07;;;;;;;2.90;1.60;;;17.40;99.90;;;;;;4994604;28;20145;-78
2021/07/11 05:41:35;;;;;;;3.17;1.67;;;17.40;99.90;;;;;;4993925;28;20595;-77
2021/07/11 05:44:04;;;;;;;4.15;1.63;;;17.40;99.90;;;;;;4991783;28;20069;-76
2021/07/11 05:46:34;;;;;;;3.85;1.40;;;17.40;99.90;;;;;;4987793;28;20495;-78
2021/07/11 05:49:01;;;;;;;3.78;1.65;;;17.50;99.90;;;;;;4993968;28;20074;-78
2021/07/11 05:51:28;;;;;;;2.90;1.50;;;17.50;99.90;;;;;;4991385;28;20085;-78
2021/07/11 05:53:55;;;;;;;3.25;1.40;;;17.50;99.90;;;;;;4992471;28;20508;-77
2021/07/11 05:56:22;;;;;;;3.85;1.40;;;17.60;99.90;;;;;;4990920;28;20042;-76
2021/07/11 05:58:50;;;;;;;3.00;1.60;;;17.60;99.90;;;;;;4994012;28;20048;-77
2021/07/11 06:01:18;;;;;;;3.35;1.70;;;17.70;99.90;;;;;;4993114;28;20178;-78
2021/07/11 06:03:46;;;;;;;3.20;1.70;;;17.70;99.90;;;;;;4991380;28;20495;-78
2021/07/11 06:06:13;;;;;;;4.63;2.22;;;17.70;99.90;;;;;;4990350;28;20133;-77
2021/07/11 06:08:41;;;;;;;2.97;1.52;;;17.70;99.90;;;;;;4988431;28;20475;-78
2021/07/11 06:11:08;;;;;;;3.25;1.48;;;17.80;99.90;;;;;;4991183;28;20042;-79
2021/07/11 06:13:35;;;;;;;3.40;1.58;;;17.80;99.90;;;;;;4990399;28;20085;-76
2021/07/11 06:16:02;;;;;;;3.58;1.50;;;17.80;99.90;;;;;;4989918;28;20130;-77
2021/07/11 06:18:30;;;;;;;3.22;1.67;;;17.80;99.90;;;;;;4991966;28;20060;-77
2021/07/11 06:20:57;;;;;;;3.00;1.60;;;17.80;99.90;;;;;;4994204;28;20410;-77
2021/07/11 06:23:24;;;;;;;3.20;1.67;;;17.90;99.90;;;;;;4993059;28;20042;-78
2021/07/11 06:25:52;;;;;;;2.92;1.50;;;17.90;99.90;;;;;;5000245;28;20101;-78
2021/07/11 06:28:19;;;;;;;3.50;1.40;;;18.00;99.90;;;;;;5003327;28;20088;-78
2021/07/11 06:30:46;;;;;;;2.92;1.40;;;18.00;99.90;;;;;;5004303;28;20073;-78
2021/07/11 06:33:13;;;;;;;2.83;1.50;;;18.10;99.90;;;;;;5003668;28;20074;-78
2021/07/11 06:35:41;;;;;;;4.72;1.75;;;18.10;99.90;;;;;;4994951;28;20149;-77
2021/07/11 06:38:08;;;;;;;2.85;1.60;;;18.10;99.90;;;;;;4991541;28;20043;-77
2021/07/11 06:40:38;;;;;;;3.92;1.60;;;18.20;99.90;;;;;;4992992;28;20152;-77
2021/07/11 06:43:05;;;;;;;3.85;1.60;;;18.20;99.90;;;;;;4988554;28;20462;-78
2021/07/11 06:45:32;;;;;;;3.17;1.70;;;18.30;99.90;;;;;;4992792;28;20129;-77
2021/07/11 06:47:59;;;;;;;3.50;1.75;;;18.30;99.90;;;;;;4993356;28;20472;-77
2021/07/11 06:50:27;;;;;;;3.47;1.90;;;18.30;99.90;;;;;;4994350;28;20050;-78
2021/07/11 06:52:55;;;;;;;3.55;1.65;;;18.30;99.90;;;;;;4993326;28;20587;-77
2021/07/11 06:55:22;;;;;;;3.17;1.52;;;18.40;99.90;;;;;;4993495;28;20135;-80
2021/07/11 06:57:49;;;;;;;4.00;1.58;;;18.40;99.90;;;;;;4993629;28;20141;-78
2021/07/11 07:00:17;;;;;;;2.83;1.50;;;18.40;99.90;;;;;;4994159;28;20656;-78
2021/07/11 07:02:44;;;;;;;4.70;1.80;;;18.50;99.90;;;;;;5007749;28;20130;-78
2021/07/11 07:05:13;;;;;;;3.53;1.90;;;18.60;99.90;;;;;;4989458;28;20046;-77
2021/07/11 07:07:40;;;;;;;3.45;1.75;;;18.60;99.90;;;;;;4993144;28;20145;-77
2021/07/11 07:10:13;;;;;;;3.90;1.90;;;18.60;99.90;;;;;;4992838;28;20054;-77
2021/07/11 07:12:41;;;;;;;3.60;1.80;;;18.60;99.90;;;;;;4994182;28;20043;-77
2021/07/11 07:15:14;;;;;;;3.83;1.67;;;18.60;99.90;;;;;;4994691;28;20502;-77
2021/07/11 07:17:42;;;;;;;4.50;2.08;;;18.60;99.90;;;;;;4994262;28;20061;-77
2021/07/11 07:20:13;;;;;;;5.10;2.20;;;18.60;99.50;;;;;;4993595;28;20129;-77
2021/07/11 07:22:40;;;;;;;3.88;1.50;;;18.60;99.40;;;;;;4992549;28;20125;-76
2021/07/11 07:25:13;;;;;;;4.40;1.80;;;18.60;99.60;;;;;;4986253;28;20049;-78
2021/07/11 07:27:41;;;;;;;3.65;1.70;;;18.60;99.40;;;;;;4992456;28;20174;-76
2021/07/11 07:30:11;;;;;;;3.63;1.90;;;18.70;99.60;;;;;;4991988;28;20077;-77
2021/07/11 07:32:38;;;;;;;3.78;1.73;;;18.70;99.60;;;;;;4996218;28;20482;-76
2021/07/11 07:35:07;;;;;;;3.35;1.80;;;18.80;98.90;;;;;;4996720;28;20043;-76
2021/07/11 07:37:34;;;;;;;3.53;1.80;;;18.80;98.80;;;;;;5003806;28;20034;-77
2021/07/11 07:40:04;;;;;;;3.25;1.77;;;18.90;98.90;;;;;;5003726;28;20073;-78
2021/07/11 07:42:33;;;;;;;3.97;1.80;;;19.00;99.10;;;;;;4995280;28;20069;-76
2021/07/11 07:45:00;;;;;;;3.22;1.42;;;19.00;98.80;;;;;;5000908;28;20106;-77
2021/07/11 07:47:31;;;;;;;6.10;2.10;;;19.10;98.90;;;;;;4997381;28;20078;-77
2021/07/11 07:50:00;;;;;;;3.53;1.70;;;19.20;98.90;;;;;;4994598;28;20576;-77
2021/07/11 07:52:27;;;;;;;4.13;1.50;;;19.30;98.40;;;;;;4991505;28;20137;-80
2021/07/11 07:54:54;;;;;;;3.55;1.73;;;19.30;98.40;;;;;;4993434;28;20078;-78
2021/07/11 07:57:21;;;;;;;3.50;1.60;;;19.40;98.30;;;;;;4993072;28;20551;-77
2021/07/11 07:59:50;;;;;;;3.60;1.90;;;19.50;98.10;;;;;;4993227;28;20565;-81
2021/07/11 08:02:21;;;;;;;3.17;1.60;;;19.50;98.00;;;;;;4991780;28;20582;-79
2021/07/11 08:04:48;;;;;;;3.25;1.63;;;19.40;98.20;;;;;;4995716;28;20046;-78
2021/07/11 08:07:15;;;;;;;3.45;1.60;;;19.40;98.30;;;;;;4996593;28;20137;-78
2021/07/11 08:09:42;;;;;;;2.75;1.65;;;19.40;98.30;;;;;;5007037;28;20070;-79
2021/07/11 08:12:09;;;;;;;3.97;1.70;;;19.30;98.70;;;;;;5019875;28;20058;-80
2021/07/11 08:14:36;;;;;;;3.38;1.40;;;19.30;98.70;;;;;;5001139;28;20038;-78
2021/07/11 08:17:05;;;;;;;2.72;1.50;;;19.30;98.90;;;;;;4997134;28;20129;-78
2021/07/11 08:19:32;;;;;;;3.63;1.77;;;19.30;99.10;;;;;;5001100;28;20451;-78
2021/07/11 08:21:59;;;;;;;3.20;1.58;;;19.40;99.30;;;;;;4994314;28;20074;-78
2021/07/11 08:24:26;;;;;;;3.38;1.50;;;19.40;98.90;;;;;;4995307;28;20101;-78
2021/07/11 08:26:53;;;;;;;3.33;1.60;;;19.40;98.90;;;;;;5006011;28;20082;-77
2021/07/11 08:29:20;;;;;;;3.08;1.58;;;19.40;98.40;;;;;;5006471;28;20233;-78
2021/07/11 08:31:47;;;;;;;4.22;1.65;;;19.40;97.70;;;;;;5006165;28;20097;-80
2021/07/11 08:34:16;;;;;;;2.80;1.50;;;19.50;97.60;;;;;;5006429;28;20077;-78
2021/07/11 08:36:43;;;;;;;3.38;1.85;;;19.50;97.60;;;;;;5006680;28;20042;-78
2021/07/11 08:39:10;;;;;;;3.13;1.38;;;19.50;97.80;;;;;;5007005;28;20107;-78
2021/07/11 08:41:40;;;;;;;3.22;1.42;;;19.60;97.70;;;;;;5000151;28;20460;-79
2021/07/11 08:44:08;;;;;;;4.60;1.50;;;19.50;97.70;;;;;;4998793;28;20089;-79
2021/07/11 08:46:35;;;;;;;3.05;1.70;;;19.50;97.40;;;;;;5007225;28;20138;-77
2021/07/11 08:49:02;;;;;;;3.30;1.50;;;19.50;97.50;;;;;;5004686;28;20078;-78
2021/07/11 08:51:31;;;;;;;3.30;1.70;;;19.50;97.30;;;;;;5005381;28;20106;-78
2021/07/11 08:53:59;;;;;;;4.20;1.65;;;19.50;97.50;;;;;;4995716;28;20527;-78
2021/07/11 08:56:27;;;;;;;4.35;1.80;;;19.50;97.80;;;;;;5003731;28;20093;-79
2021/07/11 08:58:56;;;;;;;4.78;1.73;;;19.50;97.70;;;;;;5003571;28;20042;-80
2021/07/11 09:01:27;;;;;;;3.20;1.50;;;19.50;97.40;;;;;;4996128;28;20043;-80
2021/07/11 09:04:03;;;;;;;4.30;1.58;;;19.60;97.50;;;;;;4988886;28;20082;-79
2021/07/11 09:06:52;;;;;;;3.00;1.40;;;19.60;97.60;;;;;;4986577;28;20106;-85
2021/07/11 09:09:27;;;;;;;3.75;1.63;;;19.70;97.70;;;;;;4987632;28;20389;-81
2021/07/11 09:11:58;;;;;;;3.22;1.77;;;19.70;97.40;;;;;;4984089;28;20057;-78
2021/07/11 09:14:27;;;;;;;3.65;1.80;;;19.80;97.40;;;;;;4987230;28;20126;-78
2021/07/11 09:16:57;;;;;;;3.20;1.58;;;19.80;96.90;;;;;;4988028;28;20466;-79
2021/07/11 09:19:28;;;;;;;3.30;1.50;;;19.90;97.20;;;;;;4983983;28;20125;-78
2021/07/11 09:22:01;;;;;;;4.18;1.85;;;20.00;97.30;;;;;;4984158;28;20101;-78
2021/07/11 09:24:29;;;;;;;3.47;1.50;;;20.10;97.40;;;;;;4987422;28;20105;-78
2021/07/11 09:27:06;;;;;;;3.08;1.50;;;20.20;97.40;;;;;;4987720;28;20129;-80
2021/07/11 09:29:34;;;;;;;2.70;1.58;;;20.30;97.20;;;;;;4984674;28;20053;-78
2021/07/11 09:32:02;;;;;;;3.85;1.60;;;20.50;97.10;;;;;;4985244;28;20141;-78
2021/07/11 09:34:30;;;;;;;3.45;1.65;;;20.60;96.90;;;;;;4992756;28;20102;-80
2021/07/11 09:37:12;;;;;;;4.57;1.60;;;20.60;96.90;;;;;;4993033;28;20096;-80
2021/07/11 09:39:50;;;;;;;2.95;1.60;;;20.70;96.50;;;;;;4989979;28;20093;-79
2021/07/11 09:42:30;;;;;;;3.55;1.50;;;20.90;96.00;;;;;;4986894;28;20134;-79
2021/07/11 09:44:59;;;;;;;3.25;1.50;;;20.80;95.70;;;;;;4994049;28;20074;-79
2021/07/11 09:47:30;;;;;;;3.72;1.92;;;20.80;95.40;;;;;;4995052;28;20080;-78
2021/07/11 09:50:06;;;;;;;4.10;1.90;;;20.80;95.60;;;;;;4988814;28;20093;-78
2021/07/11 09:52:35;;;;;;;3.80;1.75;;;20.70;95.40;;;;;;4979762;28;20465;-79
2021/07/11 09:55:10;;;;;;;2.80;1.40;;;20.70;95.10;;;;;;4986948;28;20085;-78
2021/07/11 09:57:40;;;;;;;4.40;2.05;;;20.60;95.00;;;;;;4991946;28;20478;-79
2021/07/11 10:00:14;;;;;;;4.32;1.88;;;20.60;95.30;;;;;;4986309;28;20137;-77
2021/07/11 10:02:43;;;;;;;3.10;1.70;;;20.40;95.60;;;;;;4982855;28;20510;-78
2021/07/11 10:05:12;;;;;;;4.35;2.00;;;20.30;97.00;;;;;;4985734;28;20130;-77
2021/07/11 10:07:41;;;;;;;5.45;1.90;;;20.10;98.00;;;;;;4989220;28;20474;-77
2021/07/11 10:10:12;;;;;;;4.15;1.90;;;19.90;98.70;;;;;;4985861;28;20600;-78
2021/07/11 10:12:43;;;;;;;3.28;1.63;;;19.80;99.30;;;;;;4992486;28;20054;-79
2021/07/11 10:15:17;;;;;;;3.88;1.80;;;19.70;99.40;;;;;;4993950;28;20077;-80
2021/07/11 10:17:49;;;;;;;4.07;1.92;;;19.60;99.00;;;;;;4989045;28;20054;-80
2021/07/11 10:20:19;;;;;;;6.50;4.00;;;19.50;99.80;;;;;;4985590;28;20074;-79
2021/07/11 10:22:52;;;;;;;4.93;2.40;;;19.50;99.90;;;;;;4986465;28;20475;-80
2021/07/11 10:25:23;;;;;;;4.00;2.00;;;19.40;99.90;;;;;;4978287;28;20046;-82
2021/07/11 10:28:06;;;;;;;14.63;8.30;;;19.40;99.90;;;;;;4982597;28;20134;-80
2021/07/11 10:30:34;;;;;;;16.92;10.10;;;19.40;99.90;;;;;;4986667;28;20042;-81
2021/07/11 10:33:11;;;;;;;7.57;4.38;;;19.50;99.90;;;;;;4993230;28;20217;-82
2021/07/11 10:35:51;;;;;;;4.63;2.08;;;19.50;99.90;;;;;;4989385;28;20048;-80
2021/07/11 10:38:34;;;;;;;3.10;1.50;;;19.50;99.90;;;;;;4992004;28;20151;-82
2021/07/11 10:41:13;;;;;;;2.80;1.40;;;19.50;99.90;;;;;;4992223;28;20129;-80
2021/07/11 10:43:41;;;;;;;3.45;1.77;;;19.40;99.90;;;;;;4985304;28;20068;-80
2021/07/11 10:46:09;;;;;;;3.50;1.67;;;19.40;99.90;;;;;;4981664;28;20181;-80
2021/07/11 10:48:36;;;;;;;3.10;1.50;;;19.40;99.90;;;;;;4985720;28;20480;-78
2021/07/11 10:51:04;;;;;;;2.90;1.50;;;19.40;99.90;;;;;;4994436;28;20366;-81
2021/07/11 10:53:38;;;;;;;3.40;1.55;;;19.40;99.90;;;;;;4986660;28;20056;-78
2021/07/11 10:56:06;;;;;;;2.85;1.38;;;19.40;99.90;;;;;;4989081;28;20129;-79
2021/07/11 10:58:47;;;;;;;2.70;1.40;;;19.40;99.90;;;;;;4982057;28;20046;-79
2021/07/11 11:01:22;;;;;;;3.05;1.50;;;19.50;99.90;;;;;;4988272;28;20492;-79
2021/07/11 11:03:52;;;;;;;2.90;1.52;;;19.50;99.90;;;;;;4982168;28;20054;-78
2021/07/11 11:06:19;;;;;;;3.10;1.60;;;19.60;99.90;;;;;;4975870;28;20046;-78
2021/07/11 11:08:48;;;;;;;2.83;1.50;;;19.60;99.90;;;;;;4981200;28;20142;-78
2021/07/11 11:11:16;;;;;;;2.85;1.58;;;19.60;99.90;;;;;;4982409;28;20544;-79
2021/07/11 11:13:43;;;;;;;3.00;1.60;;;19.70;99.90;;;;;;4983677;28;20399;-79
2021/07/11 11:16:21;;;;;;;3.15;1.50;;;19.80;99.90;;;;;;4984499;28;20129;-78
2021/07/11 11:18:53;;;;;;;3.22;1.60;;;19.90;99.90;;;;;;4982437;28;20058;-79
2021/07/11 11:21:23;;;;;;;2.67;1.48;;;20.00;99.90;;;;;;4983125;28;20468;-78
2021/07/11 11:23:54;;;;;;;3.30;1.50;;;20.10;99.90;;;;;;4981935;28;20089;-78
2021/07/11 11:26:23;;;;;;;3.80;1.90;;;20.30;99.90;;;;;;4984309;28;20121;-78
2021/07/11 11:28:52;;;;;;;3.53;1.73;;;20.30;99.90;;;;;;4984959;28;20125;-78
2021/07/11 11:31:22;;;;;;;2.92;1.42;;;20.40;99.90;;;;;;4982994;28;20579;-79
2021/07/11 11:34:00;;;;;;;3.20;1.80;;;20.50;99.90;;;;;;4985395;28;20511;-79
2021/07/11 11:36:31;;;;;;;3.83;1.70;;;20.60;99.90;;;;;;4989360;28;20559;-81
2021/07/11 11:39:05;;;;;;;4.18;2.55;;;20.70;99.90;;;;;;4987173;28;20133;-78
2021/07/11 11:41:32;;;;;;;3.83;2.00;;;20.80;99.90;;;;;;4978686;28;20469;-76
2021/07/11 11:44:07;;;;;;;3.03;1.50;;;20.90;99.90;;;;;;4990059;28;20516;-78
2021/07/11 11:46:35;;;;;;;3.47;1.80;;;21.00;99.90;;;;;;4982307;28;20045;-78
2021/07/11 11:49:06;;;;;;;3.17;1.48;;;21.00;99.60;;;;;;4981615;28;20463;-78
2021/07/11 11:51:35;;;;;;;3.83;1.70;;;21.10;99.60;;;;;;4989154;28;20117;-78
2021/07/11 11:54:03;;;;;;;3.55;1.75;;;21.20;99.70;;;;;;4995027;28;20078;-77
2021/07/11 11:56:30;;;;;;;3.22;1.60;;;21.20;99.60;;;;;;4991626;28;20399;-78
2021/07/11 11:59:03;;;;;;;2.83;1.55;;;21.30;98.90;;;;;;4989492;28;20137;-79
2021/07/11 12:01:33;;;;;;;3.20;1.50;;;21.40;98.60;;;;;;5001104;28;20508;-77
2021/07/11 12:04:13;;;;;;;2.75;1.40;;;21.50;98.40;;;;;;5002522;28;20054;-78
2021/07/11 12:06:42;;;;;;;2.63;1.35;;;21.60;97.70;;;;;;4997079;28;20102;-79
2021/07/11 12:09:11;;;;;;;3.20;1.25;;;21.70;97.10;;;;;;4993257;28;20133;-79
2021/07/11 12:11:38;;;;;;;2.63;1.23;;;21.90;97.40;;;;;;4982742;28;20136;-79
2021/07/11 12:14:18;;;;;;;2.55;1.10;;;22.00;96.40;;;;;;4977386;28;20078;-78
2021/07/11 12:16:45;;;;;;;2.63;1.27;;;22.20;95.90;;;;;;4984842;28;20050;-78
2021/07/11 12:19:13;;;;;;;3.15;1.10;;;22.30;95.10;;;;;;4981697;28;20074;-78
2021/07/11 12:21:44;;;;;;;2.40;1.20;;;22.30;95.60;;;;;;4985811;28;20047;-79
2021/07/11 12:24:17;;;;;;;2.90;1.40;;;22.40;95.90;;;;;;4977812;28;20057;-77
2021/07/11 12:26:48;;;;;;;2.30;1.10;;;22.50;95.10;;;;;;4982273;28;20051;-79
2021/07/11 12:29:17;;;;;;;2.35;1.20;;;22.70;94.80;;;;;;4979916;28;20137;-78
2021/07/11 12:31:45;;;;;;;2.90;1.23;;;22.80;94.40;;;;;;4991632;28;20054;-79
2021/07/11 12:34:16;;;;;;;2.33;1.10;;;22.90;93.10;;;;;;4976854;28;20117;-78
2021/07/11 12:36:53;;;;;;;2.10;1.00;;;22.90;92.40;;;;;;4975889;28;20403;-79
2021/07/11 12:39:25;;;;;;;2.92;1.48;;;23.10;91.80;;;;;;4985467;28;20138;-79
2021/07/11 12:41:53;;;;;;;3.00;1.50;;;23.20;91.00;;;;;;4974739;28;20138;-79
2021/07/11 12:44:32;;;;;;;2.63;1.40;;;23.30;90.80;;;;;;4989782;28;20141;-79
2021/07/11 12:47:06;;;;;;;3.03;1.33;;;23.40;90.60;;;;;;5003761;28;20081;-79
2021/07/11 12:49:34;;;;;;;2.25;1.15;;;23.50;89.60;;;;;;4995368;28;20133;-78
2021/07/11 12:52:08;;;;;;;2.70;1.20;;;23.70;90.00;;;;;;4989676;28;20053;-80
2021/07/11 12:54:36;;;;;;;3.47;1.30;;;23.80;90.50;;;;;;4979653;28;20138;-79
2021/07/11 12:57:05;;;;;;;2.75;1.20;;;24.00;91.30;;;;;;4989415;28;20134;-79